03FL weather

Ranger Heliport
West Palm Beach, Florida, United States

Public forecast

Using degrees Fahrenheit for public forecast. Weather courtesy of forecast.io.

Closest aviation weather report (METAR) to Ranger Heliport

Closest report is Palm Beach International Airport, 4.9 nm (9.1 km) E. Retrieved 2019/10/20 02:53 UTC (2 hours ago):

KPBI 200253Z 18007KT 10SM BKN100 28/24 A2991 RMK AO2 SLP127 T02780239 53016

Closest aviation forecast (TAF) to Ranger Heliport

Closest forecast is Palm Beach International Airport, 4.9 nm (9.1 km) E. Retrieved 2019-10-20 00:31 UTC (4 hours ago):

TAF KPBI 192328Z 2000/2024 17010KT P6SM VCSH SCT020 BKN110 FM200900 21007KT P6SM VCSH FEW020 SCT110 FM202000 19010KT P6SM SCT035 BKN120